Seamaster — ZMV7638 — position and weather

sailwx.info

Track history (hours):
 
Tides and Currents Weather Stations Pressure Air Temp Water Temp Dewpoint Dewpoint Depression Visibility Wind Speed Wind Dir Waves Ship Positions

Seamaster

Last reported at 2015-Jan-30 01:32 UTC. Time now 2015-Jan-30 14:06 UTC.
Position S 36°52' E 174°54'.

Length 44 m.

Type: Passenger vessel. MMSI: 512001027.

Date/timePositionNaut miles runAvg speedWind from/ knotsBaromVisibWave heightAir tempDewpointWater temp
2015-Jan-30 01:32S 36°52' E 174°54'1 0.6
2015-Jan-29 23:26S 36°51' E 174°53'1 0.7
2015-Jan-29 22:26S 36°52' E 174°54'0 0.0
2015-Jan-29 20:15S 36°51' E 174°54'1 0.9
2015-Jan-29 19:29S 36°52' E 174°54'1 0.3
2015-Jan-29 17:19S 36°51' E 174°54'1 1.2
2015-Jan-29 16:10S 36°53' E 174°54'1 0.1
2015-Jan-29 04:26S 36°52' E 174°54'6 4.2
2015-Jan-29 03:04S 36°49' E 175°00'6 8.6
2015-Jan-29 02:24S 36°51' E 174°54'1 1.1
2015-Jan-29 01:32S 36°52' E 174°54'1 0.3
2015-Jan-28 23:25S 36°51' E 174°54'1 0.8
2015-Jan-28 22:32S 36°52' E 174°54'1 0.4
2015-Jan-28 20:19S 36°51' E 174°54'1 1.1
2015-Jan-28 19:30S 36°52' E 174°54'1 0.4
2015-Jan-28 17:20S 36°51' E 174°54'2 1.7
2015-Jan-28 16:23S 36°53' E 174°54'0 0.0
2015-Jan-28 11:15S 36°53' E 174°54'1 0.1
2015-Jan-28 04:29S 36°52' E 174°54'1 0.5
2015-Jan-28 02:15S 36°51' E 174°53'1 1.0
2015-Jan-28 01:33S 36°52' E 174°54'7 5.2
2015-Jan-28 00:16S 36°49' E 175°01'7 8.4
2015-Jan-27 23:29S 36°51' E 174°54'1 1.5
2015-Jan-27 22:29S 36°53' E 174°54'3 1.7
2015-Jan-27 20:33S 36°50' E 174°57'3 2.5
2015-Jan-27 19:25S 36°52' E 174°54'1 0.7
2015-Jan-27 17:22S 36°51' E 174°54'2 2.2
2015-Jan-27 16:24S 36°53' E 174°54'7 7.8
2015-Jan-27 15:29S 36°49' E 175°01'7 3.5
2015-Jan-27 13:33S 36°52' E 174°54'2 1.0
2015-Jan-27 11:32S 36°50' E 174°56'2 0.4
2015-Jan-27 04:32S 36°52' E 174°54'1 0.5
2015-Jan-27 02:14S 36°51' E 174°54'1 0.8
2015-Jan-27 01:24S 36°52' E 174°54'1 0.3
2015-Jan-26 23:13S 36°51' E 174°54'1 0.9
2015-Jan-26 22:24S 36°52' E 174°54'1 0.3
2015-Jan-26 20:15S 36°51' E 174°54'1 0.8
2015-Jan-26 19:25S 36°52' E 174°54'1 0.3
2015-Jan-26 17:15S 36°51' E 174°54'1 0.1
2015-Jan-26 07:31S 36°51' E 174°53'0 0.2
2015-Jan-26 05:27S 36°50' E 174°53'2 2.1
2015-Jan-26 04:32S 36°52' E 174°54'1 0.3
2015-Jan-26 02:10S 36°51' E 174°54'1 1.0
2015-Jan-26 01:25S 36°52' E 174°54'1 0.3
2015-Jan-25 23:12S 36°51' E 174°54'1 0.8
2015-Jan-25 22:24S 36°52' E 174°54'1 0.3
2015-Jan-25 20:18S 36°51' E 174°54'0 0.2
2015-Jan-25 19:24S 36°52' E 174°54'2 0.8
2015-Jan-25 17:23S 36°50' E 174°53'1 0.1
2015-Jan-25 04:33S 36°51' E 174°53'0 0.1
2015-Jan-25 02:08S 36°51' E 174°54'1 0.9
2015-Jan-25 01:29S 36°52' E 174°54'1 0.2
2015-Jan-24 23:13S 36°52' E 174°54'0 0.2
2015-Jan-24 22:21S 36°52' E 174°54'0 0.1
2015-Jan-24 20:14S 36°51' E 174°54'0 0.4
2015-Jan-24 19:29S 36°52' E 174°54'2 0.9
2015-Jan-24 17:25S 36°50' E 174°53'1 0.1
2015-Jan-24 08:32S 36°51' E 174°54'3 1.5
2015-Jan-24 06:23S 36°47' E 174°54'3 3.3
2015-Jan-24 05:23S 36°50' E 174°53'1 1.1
2015-Jan-24 04:33S 36°51' E 174°53'0 0.1
2015-Jan-24 02:10S 36°51' E 174°54'1 1.0
2015-Jan-24 01:32S 36°52' E 174°54'1 0.3
2015-Jan-23 23:22S 36°51' E 174°54'1 0.8
2015-Jan-23 22:28S 36°52' E 174°54'1 0.3
2015-Jan-23 20:20S 36°51' E 174°54'1 0.7
2015-Jan-23 19:32S 36°52' E 174°54'1 0.2
2015-Jan-23 17:14S 36°51' E 174°54'1 0.0
2015-Jan-23 04:33S 36°51' E 174°53'1 0.3
2015-Jan-23 02:22S 36°50' E 174°53'2 2.4
2015-Jan-23 01:33S 36°52' E 174°54'1 0.4
2015-Jan-22 23:16S 36°51' E 174°53'1 0.8
2015-Jan-22 22:21S 36°52' E 174°54'1 0.3
2015-Jan-22 20:11S 36°51' E 174°54'1 0.8
2015-Jan-22 19:17S 36°51' E 174°54'0 0.0
2015-Jan-22 17:23S 36°51' E 174°54'2 2.3
2015-Jan-22 16:31S 36°53' E 174°54'0 0.0
2015-Jan-22 05:07S 36°53' E 174°54'3 5.1
2015-Jan-22 04:28S 36°50' E 174°56'4 3.7
2015-Jan-22 03:30S 36°49' E 175°00'6 6.1
2015-Jan-22 02:32S 36°51' E 174°54'1 1.2
2015-Jan-22 01:34S 36°51' E 174°53'1 0.4
2015-Jan-21 23:14S 36°51' E 174°53'1 1.4
2015-Jan-21 22:27S 36°52' E 174°54'1 0.5
2015-Jan-21 20:22S 36°51' E 174°53'1 1.0
2015-Jan-21 19:23S 36°52' E 174°54'1 0.6
2015-Jan-21 17:18S 36°51' E 174°54'2 2.2
2015-Jan-21 16:29S 36°53' E 174°54'3 1.4
2015-Jan-21 14:30S 36°50' E 174°53'1 0.1
2015-Jan-21 04:33S 36°51' E 174°54'1 0.3
2015-Jan-21 02:30S 36°51' E 174°53'0 0.3
2015-Jan-21 01:33S 36°52' E 174°54'0 0.1
2015-Jan-20 23:13S 36°51' E 174°54'1 0.7
2015-Jan-20 22:22S 36°52' E 174°54'1 0.3
2015-Jan-20 20:10S 36°51' E 174°54'1 0.8
2015-Jan-20 19:23S 36°52' E 174°54'1 0.4
2015-Jan-20 17:21S 36°51' E 174°54'3 0.4
2015-Jan-20 10:17S 36°48' E 174°55'6 8.7
2015-Jan-20 09:33S 36°42' E 174°56'9 9.0
2015-Jan-20 08:33S 36°33' E 174°53'7 2.1
2015-Jan-20 05:08S 36°27' E 174°50'5 9.1
2015-Jan-20 04:33S 36°31' E 174°53'12 9.5
2015-Jan-20 03:15S 36°43' E 174°56'8 8.5
2015-Jan-20 02:19S 36°51' E 174°54'  
Track history (hours):
 
Tides and Currents Weather Stations Pressure Air Temp Water Temp Dewpoint Dewpoint Depression Visibility Wind Speed Wind Dir Waves Ship Positions

Seamaster

Last reported at 2015-Jan-30 01:32 UTC. Time now 2015-Jan-30 14:06 UTC.
Position S 36°52' E 174°54'.

Length 44 m.

Type: Passenger vessel. MMSI: 512001027.

Date/timePositionNaut miles runAvg speedWind from/ knotsBaromVisibWave heightAir tempDewpointWater temp
2015-Jan-30 01:32S 36°52' E 174°54'1 0.6
2015-Jan-29 23:26S 36°51' E 174°53'1 0.7
2015-Jan-29 22:26S 36°52' E 174°54'0 0.0
2015-Jan-29 20:15S 36°51' E 174°54'1 0.9
2015-Jan-29 19:29S 36°52' E 174°54'1 0.3
2015-Jan-29 17:19S 36°51' E 174°54'1 1.2
2015-Jan-29 16:10S 36°53' E 174°54'1 0.1
2015-Jan-29 04:26S 36°52' E 174°54'6 4.2
2015-Jan-29 03:04S 36°49' E 175°00'6 8.6
2015-Jan-29 02:24S 36°51' E 174°54'1 1.1
2015-Jan-29 01:32S 36°52' E 174°54'1 0.3
2015-Jan-28 23:25S 36°51' E 174°54'1 0.8
2015-Jan-28 22:32S 36°52' E 174°54'1 0.4
2015-Jan-28 20:19S 36°51' E 174°54'1 1.1
2015-Jan-28 19:30S 36°52' E 174°54'1 0.4
2015-Jan-28 17:20S 36°51' E 174°54'2 1.7
2015-Jan-28 16:23S 36°53' E 174°54'0 0.0
2015-Jan-28 11:15S 36°53' E 174°54'1 0.1
2015-Jan-28 04:29S 36°52' E 174°54'1 0.5
2015-Jan-28 02:15S 36°51' E 174°53'1 1.0
2015-Jan-28 01:33S 36°52' E 174°54'7 5.2
2015-Jan-28 00:16S 36°49' E 175°01'7 8.4
2015-Jan-27 23:29S 36°51' E 174°54'1 1.5
2015-Jan-27 22:29S 36°53' E 174°54'3 1.7
2015-Jan-27 20:33S 36°50' E 174°57'3 2.5
2015-Jan-27 19:25S 36°52' E 174°54'1 0.7
2015-Jan-27 17:22S 36°51' E 174°54'2 2.2
2015-Jan-27 16:24S 36°53' E 174°54'7 7.8
2015-Jan-27 15:29S 36°49' E 175°01'7 3.5
2015-Jan-27 13:33S 36°52' E 174°54'2 1.0
2015-Jan-27 11:32S 36°50' E 174°56'2 0.4
2015-Jan-27 04:32S 36°52' E 174°54'1 0.5
2015-Jan-27 02:14S 36°51' E 174°54'1 0.8
2015-Jan-27 01:24S 36°52' E 174°54'1 0.3
2015-Jan-26 23:13S 36°51' E 174°54'1 0.9
2015-Jan-26 22:24S 36°52' E 174°54'1 0.3
2015-Jan-26 20:15S 36°51' E 174°54'1 0.8
2015-Jan-26 19:25S 36°52' E 174°54'1 0.3
2015-Jan-26 17:15S 36°51' E 174°54'1 0.1
2015-Jan-26 07:31S 36°51' E 174°53'0 0.2
2015-Jan-26 05:27S 36°50' E 174°53'2 2.1
2015-Jan-26 04:32S 36°52' E 174°54'1 0.3
2015-Jan-26 02:10S 36°51' E 174°54'1 1.0
2015-Jan-26 01:25S 36°52' E 174°54'1 0.3
2015-Jan-25 23:12S 36°51' E 174°54'1 0.8
2015-Jan-25 22:24S 36°52' E 174°54'1 0.3
2015-Jan-25 20:18S 36°51' E 174°54'0 0.2
2015-Jan-25 19:24S 36°52' E 174°54'2 0.8
2015-Jan-25 17:23S 36°50' E 174°53'1 0.1
2015-Jan-25 04:33S 36°51' E 174°53'0 0.1
2015-Jan-25 02:08S 36°51' E 174°54'1 0.9
2015-Jan-25 01:29S 36°52' E 174°54'1 0.2
2015-Jan-24 23:13S 36°52' E 174°54'0 0.2
2015-Jan-24 22:21S 36°52' E 174°54'0 0.1
2015-Jan-24 20:14S 36°51' E 174°54'0 0.4
2015-Jan-24 19:29S 36°52' E 174°54'2 0.9
2015-Jan-24 17:25S 36°50' E 174°53'1 0.1
2015-Jan-24 08:32S 36°51' E 174°54'3 1.5
2015-Jan-24 06:23S 36°47' E 174°54'3 3.3
2015-Jan-24 05:23S 36°50' E 174°53'1 1.1
2015-Jan-24 04:33S 36°51' E 174°53'0 0.1
2015-Jan-24 02:10S 36°51' E 174°54'1 1.0
2015-Jan-24 01:32S 36°52' E 174°54'1 0.3
2015-Jan-23 23:22S 36°51' E 174°54'1 0.8
2015-Jan-23 22:28S 36°52' E 174°54'1 0.3
2015-Jan-23 20:20S 36°51' E 174°54'1 0.7
2015-Jan-23 19:32S 36°52' E 174°54'1 0.2
2015-Jan-23 17:14S 36°51' E 174°54'1 0.0
2015-Jan-23 04:33S 36°51' E 174°53'1 0.3
2015-Jan-23 02:22S 36°50' E 174°53'2 2.4
2015-Jan-23 01:33S 36°52' E 174°54'1 0.4
2015-Jan-22 23:16S 36°51' E 174°53'1 0.8
2015-Jan-22 22:21S 36°52' E 174°54'1 0.3
2015-Jan-22 20:11S 36°51' E 174°54'1 0.8
2015-Jan-22 19:17S 36°51' E 174°54'0 0.0
2015-Jan-22 17:23S 36°51' E 174°54'2 2.3
2015-Jan-22 16:31S 36°53' E 174°54'0 0.0
2015-Jan-22 05:07S 36°53' E 174°54'3 5.1
2015-Jan-22 04:28S 36°50' E 174°56'4 3.7
2015-Jan-22 03:30S 36°49' E 175°00'6 6.1
2015-Jan-22 02:32S 36°51' E 174°54'1 1.2
2015-Jan-22 01:34S 36°51' E 174°53'1 0.4
2015-Jan-21 23:14S 36°51' E 174°53'1 1.4
2015-Jan-21 22:27S 36°52' E 174°54'1 0.5
2015-Jan-21 20:22S 36°51' E 174°53'1 1.0
2015-Jan-21 19:23S 36°52' E 174°54'1 0.6
2015-Jan-21 17:18S 36°51' E 174°54'2 2.2
2015-Jan-21 16:29S 36°53' E 174°54'3 1.4
2015-Jan-21 14:30S 36°50' E 174°53'1 0.1
2015-Jan-21 04:33S 36°51' E 174°54'1 0.3
2015-Jan-21 02:30S 36°51' E 174°53'0 0.3
2015-Jan-21 01:33S 36°52' E 174°54'0 0.1
2015-Jan-20 23:13S 36°51' E 174°54'1 0.7
2015-Jan-20 22:22S 36°52' E 174°54'1 0.3
2015-Jan-20 20:10S 36°51' E 174°54'1 0.8
2015-Jan-20 19:23S 36°52' E 174°54'1 0.4
2015-Jan-20 17:21S 36°51' E 174°54'3 0.4
2015-Jan-20 10:17S 36°48' E 174°55'6 8.7
2015-Jan-20 09:33S 36°42' E 174°56'9 9.0
2015-Jan-20 08:33S 36°33' E 174°53'7 2.1
2015-Jan-20 05:08S 36°27' E 174°50'5 9.1
2015-Jan-20 04:33S 36°31' E 174°53'12 9.5
2015-Jan-20 03:15S 36°43' E 174°56'8 8.5
2015-Jan-20 02:19S 36°51' E 174°54'  

Dump ship's entire track history